createdAt,value
2018-02-03T00:00:18.136Z,73.20
2018-02-03T00:02:50.458Z,75.50
2018-02-03T00:05:22.577Z,75.40
2018-02-03T00:07:54.309Z,74.30
2018-02-03T00:10:25.980Z,73.30
2018-02-03T00:12:58.322Z,74.10
2018-02-03T00:15:30.445Z,74.60
2018-02-03T00:18:02.508Z,74.40
2018-02-03T00:20:34.762Z,74.40
2018-02-03T00:23:06.099Z,76.00
2018-02-03T00:25:37.910Z,76.20
2018-02-03T00:28:09.926Z,76.80
2018-02-03T00:30:44.663Z,76.80
2018-02-03T00:33:15.460Z,75.10
2018-02-03T00:35:47.841Z,76.40
2018-02-03T00:38:20.845Z,75.60
2018-02-03T00:40:52.138Z,77.80
2018-02-03T00:43:24.213Z,77.10
2018-02-03T00:45:57.952Z,77.50
2018-02-03T00:48:29.619Z,79.10
2018-02-03T00:51:01.553Z,77.00
2018-02-03T00:53:34.206Z,78.20
2018-02-03T00:56:07.358Z,79.70
2018-02-03T00:58:42.789Z,79.60
2018-02-03T01:01:15.599Z,79.20
2018-02-03T01:03:47.646Z,78.70
2018-02-03T01:06:21.263Z,78.60
2018-02-03T01:08:52.654Z,78.00
2018-02-03T01:11:24.293Z,78.00
2018-02-03T01:13:57.804Z,75.50
2018-02-03T01:16:31.856Z,76.30
2018-02-03T01:19:03.515Z,76.30
2018-02-03T01:21:34.560Z,76.00
2018-02-03T01:24:06.806Z,76.10
2018-02-03T01:26:38.403Z,75.90
2018-02-03T01:29:11.391Z,75.60
2018-02-03T01:31:45.604Z,75.80
2018-02-03T01:34:17.439Z,76.40
2018-02-03T01:36:49.129Z,76.70
2018-02-03T01:39:22.073Z,76.80
2018-02-03T01:41:53.474Z,77.00
2018-02-03T01:44:26.760Z,77.50
2018-02-03T01:46:59.105Z,77.50
2018-02-03T01:49:31.436Z,77.40
2018-02-03T01:52:04.032Z,77.20
2018-02-03T01:54:36.980Z,77.10
2018-02-03T01:57:09.819Z,77.70
2018-02-03T01:59:41.824Z,77.80
2018-02-03T02:02:14.047Z,77.30
2018-02-03T02:04:46.325Z,77.30
2018-02-03T02:07:18.191Z,75.80
2018-02-03T02:09:50.951Z,75.30
2018-02-03T02:12:23.255Z,76.70
2018-02-03T02:14:55.065Z,76.40
2018-02-03T02:17:29.088Z,77.50
2018-02-03T02:20:01.082Z,76.70
2018-02-03T02:22:32.963Z,77.20
2018-02-03T02:25:06.265Z,77.20
2018-02-03T02:27:39.075Z,76.90
2018-02-03T02:30:11.445Z,76.90
2018-02-03T02:32:46.349Z,77.30
2018-02-03T02:35:18.236Z,77.60
2018-02-03T02:37:50.457Z,77.60
2018-02-03T02:40:22.059Z,77.90
2018-02-03T02:42:53.908Z,78.00
2018-02-03T02:45:27.921Z,77.10
2018-02-03T02:47:59.911Z,77.10
2018-02-03T02:50:31.712Z,77.10
2018-02-03T02:53:03.368Z,77.70
2018-02-03T02:55:35.004Z,77.80
2018-02-03T02:58:06.514Z,78.20
2018-02-03T03:00:38.534Z,79.20
2018-02-03T03:03:09.980Z,79.00
2018-02-03T03:05:42.572Z,78.90
2018-02-03T03:08:13.746Z,78.90
2018-02-03T03:10:47.162Z,78.20
2018-02-03T03:13:18.871Z,78.10
2018-02-03T03:15:50.942Z,77.40
2018-02-03T03:18:23.614Z,77.10
2018-02-03T03:20:55.250Z,77.10
2018-02-03T03:23:26.579Z,77.40
2018-02-03T03:25:59.531Z,77.80
2018-02-03T03:28:31.474Z,78.20
2018-02-03T03:31:04.713Z,77.80
2018-02-03T03:33:37.046Z,77.60
2018-02-03T03:36:12.115Z,78.10
2018-02-03T03:38:44.335Z,78.10
2018-02-03T03:41:17.696Z,77.50
2018-02-03T03:43:51.254Z,77.80
2018-02-03T03:46:23.015Z,77.60
2018-02-03T03:48:55.551Z,77.90
2018-02-03T03:51:28.828Z,77.90
2018-02-03T03:54:02.200Z,77.80
2018-02-03T03:56:35.127Z,77.60
2018-02-03T03:59:06.965Z,79.10
2018-02-03T04:01:38.658Z,77.30
2018-02-03T04:04:11.243Z,77.00
2018-02-03T04:06:43.127Z,77.50
2018-02-03T04:09:16.775Z,76.20
2018-02-03T04:11:48.906Z,76.40
2018-02-03T04:14:21.221Z,76.40
2018-02-03T04:16:53.116Z,76.60
2018-02-03T04:19:25.807Z,76.20
2018-02-03T04:21:57.413Z,76.20
2018-02-03T04:24:29.856Z,76.00
2018-02-03T04:27:01.412Z,76.00
2018-02-03T04:29:34.326Z,75.80
2018-02-03T04:32:06.136Z,76.40
2018-02-03T04:34:37.832Z,75.90
2018-02-03T04:37:11.798Z,76.40
2018-02-03T04:39:43.529Z,76.40
2018-02-03T04:42:15.454Z,76.30
2018-02-03T04:44:46.584Z,76.50
2018-02-03T04:47:19.071Z,76.30
2018-02-03T04:49:53.518Z,75.70
2018-02-03T04:52:25.513Z,76.20
2018-02-03T04:54:59.670Z,76.00
2018-02-03T04:57:32.445Z,75.30
2018-02-03T05:00:05.550Z,75.70
2018-02-03T05:02:37.829Z,76.00
2018-02-03T05:05:11.403Z,75.10
2018-02-03T05:07:43.435Z,75.20
2018-02-03T05:10:17.551Z,73.10
2018-02-03T05:12:51.724Z,72.40
2018-02-03T05:15:23.829Z,72.40
2018-02-03T05:17:56.882Z,73.10
2018-02-03T05:20:29.766Z,73.20
2018-02-03T05:23:04.187Z,73.20
2018-02-03T05:25:36.572Z,73.00
2018-02-03T05:28:09.331Z,72.70
2018-02-03T05:30:41.987Z,72.60
2018-02-03T05:33:15.438Z,72.50
2018-02-03T05:35:48.581Z,72.20
2018-02-03T05:38:22.404Z,72.20
2018-02-03T05:40:54.576Z,72.60
2018-02-03T05:43:27.865Z,71.90
2018-02-03T05:45:59.194Z,71.60
2018-02-03T05:48:32.816Z,71.90
2018-02-03T05:51:04.410Z,72.20
2018-02-03T05:53:36.275Z,71.70
2018-02-03T05:56:09.643Z,71.70
2018-02-03T05:58:40.997Z,71.70
2018-02-03T06:01:13.577Z,71.90
2018-02-03T06:03:47.356Z,71.80
2018-02-03T06:06:19.315Z,71.90
2018-02-03T06:08:52.775Z,72.80
2018-02-03T06:11:25.420Z,72.20
2018-02-03T06:13:56.955Z,71.90
2018-02-03T06:16:29.512Z,71.90
2018-02-03T06:19:01.701Z,71.90
2018-02-03T06:21:34.037Z,71.90
2018-02-03T06:24:05.542Z,72.40
2018-02-03T06:26:37.270Z,71.70
2018-02-03T06:29:09.696Z,72.20
2018-02-03T06:31:41.899Z,72.10
2018-02-03T06:34:13.564Z,72.10
2018-02-03T06:36:46.756Z,72.00
2018-02-03T06:39:19.504Z,71.90
2018-02-03T06:41:51.872Z,72.30
2018-02-03T06:44:23.846Z,72.20
2018-02-03T06:46:56.160Z,72.50
2018-02-03T06:49:27.420Z,72.30
2018-02-03T06:51:59.614Z,72.30
2018-02-03T06:54:31.161Z,72.60
2018-02-03T06:57:03.445Z,72.80
2018-02-03T06:59:35.153Z,72.80
2018-02-03T07:02:08.942Z,72.40
2018-02-03T07:04:44.230Z,72.80
2018-02-03T07:07:17.038Z,72.90
2018-02-03T07:09:49.072Z,72.90
2018-02-03T07:12:23.030Z,72.10
2018-02-03T07:14:55.145Z,73.50
2018-02-03T07:17:28.806Z,72.50
2018-02-03T07:20:02.510Z,72.50
2018-02-03T07:22:35.559Z,71.90
2018-02-03T07:25:10.304Z,72.80
2018-02-03T07:27:43.380Z,72.80
2018-02-03T07:30:16.452Z,74.10
2018-02-03T07:32:50.261Z,72.70
2018-02-03T07:35:22.820Z,72.50
2018-02-03T07:37:56.125Z,72.10
2018-02-03T07:40:28.542Z,72.70
2018-02-03T07:43:00.890Z,72.70
2018-02-03T07:45:33.457Z,72.50
2018-02-03T07:48:06.752Z,71.80
2018-02-03T07:50:39.373Z,72.50
2018-02-03T07:53:10.947Z,72.40
2018-02-03T07:55:45.452Z,72.30
2018-02-03T07:58:19.403Z,72.10
2018-02-03T08:00:54.259Z,71.50
2018-02-03T08:03:27.762Z,71.50
2018-02-03T08:05:59.519Z,70.80
2018-02-03T08:08:31.816Z,70.50
2018-02-03T08:11:03.396Z,70.30
2018-02-03T08:13:37.380Z,69.60
2018-02-03T08:16:08.856Z,69.50
2018-02-03T08:18:41.665Z,69.40
2018-02-03T08:21:14.061Z,68.80
2018-02-03T08:23:45.643Z,68.80
2018-02-03T08:26:19.175Z,67.90
2018-02-03T08:28:51.348Z,68.10
2018-02-03T08:31:24.662Z,67.40
2018-02-03T08:33:56.996Z,67.20
2018-02-03T08:36:30.418Z,66.80
2018-02-03T08:39:03.409Z,67.00
2018-02-03T08:41:37.618Z,65.90
2018-02-03T08:44:14.500Z,65.30
2018-02-03T08:46:48.524Z,65.30
2018-02-03T08:49:21.217Z,64.90
2018-02-03T08:51:54.917Z,64.90
2018-02-03T08:54:26.835Z,65.20
2018-02-03T08:57:00.764Z,65.30
2018-02-03T08:59:34.085Z,65.70
2018-02-03T09:02:06.810Z,64.40
2018-02-03T09:04:40.771Z,64.60
2018-02-03T09:07:13.383Z,64.50
2018-02-03T09:09:47.613Z,64.80
2018-02-03T09:12:20.241Z,65.00
2018-02-03T09:14:52.857Z,64.40
2018-02-03T09:17:28.309Z,64.70
2018-02-03T09:20:00.942Z,64.60
2018-02-03T09:22:39.133Z,64.50
2018-02-03T09:25:12.627Z,64.70
2018-02-03T09:27:45.491Z,64.60
2018-02-03T09:30:17.313Z,64.70
2018-02-03T09:32:49.626Z,63.60
2018-02-03T09:35:20.797Z,63.50
2018-02-03T09:37:53.985Z,63.40
2018-02-03T09:40:27.525Z,63.20
2018-02-03T09:42:59.547Z,61.60
2018-02-03T09:45:32.764Z,63.20
2018-02-03T09:48:05.023Z,63.20
2018-02-03T09:50:36.480Z,63.20
2018-02-03T09:53:07.931Z,63.20
2018-02-03T09:55:40.293Z,63.10
2018-02-03T09:58:13.185Z,63.10
2018-02-03T10:00:45.825Z,63.30
2018-02-03T10:03:18.057Z,63.30
2018-02-03T10:05:49.532Z,63.10
2018-02-03T10:08:22.174Z,63.10
2018-02-03T10:10:55.006Z,63.30
2018-02-03T10:13:26.615Z,62.80
2018-02-03T10:15:58.214Z,62.70
2018-02-03T10:18:33.623Z,62.70
2018-02-03T10:21:06.409Z,61.90
2018-02-03T10:23:38.322Z,61.30
2018-02-03T10:26:12.094Z,61.40
2018-02-03T10:28:44.418Z,61.40
2018-02-03T10:31:20.593Z,61.20
2018-02-03T10:33:54.102Z,61.20
2018-02-03T10:36:27.207Z,60.80
2018-02-03T10:39:02.156Z,60.60
2018-02-03T10:41:35.105Z,60.00
2018-02-03T10:44:07.339Z,60.00
2018-02-03T10:46:39.306Z,59.60
2018-02-03T10:49:11.585Z,58.60
2018-02-03T10:51:44.704Z,58.70
2018-02-03T10:54:16.680Z,58.60
2018-02-03T10:56:49.743Z,58.40
2018-02-03T10:59:22.946Z,58.00
2018-02-03T11:01:56.625Z,58.60
2018-02-03T11:04:30.808Z,58.60
2018-02-03T11:07:08.749Z,58.90
2018-02-03T11:09:44.191Z,59.40
2018-02-03T11:12:18.036Z,60.10
2018-02-03T11:14:49.752Z,60.60
2018-02-03T11:17:23.315Z,60.80
2018-02-03T11:19:54.465Z,61.10
2018-02-03T11:22:28.414Z,60.90
2018-02-03T11:25:01.855Z,60.10
2018-02-03T11:27:34.144Z,59.70
2018-02-03T11:30:08.232Z,59.10
2018-02-03T11:32:41.909Z,59.10
2018-02-03T11:35:13.618Z,59.00
2018-02-03T11:37:46.767Z,59.40
2018-02-03T11:40:19.619Z,58.70
2018-02-03T11:42:53.198Z,58.10
2018-02-03T11:45:25.611Z,58.00
2018-02-03T11:47:57.378Z,57.90
2018-02-03T11:50:28.881Z,57.80
2018-02-03T11:53:01.585Z,57.30
2018-02-03T11:55:34.972Z,57.40
2018-02-03T11:58:08.295Z,57.40
2018-02-03T12:00:43.127Z,56.90
2018-02-03T12:03:14.989Z,56.40
2018-02-03T12:05:46.943Z,55.20
2018-02-03T12:08:19.817Z,55.70
2018-02-03T12:10:54.027Z,55.60
2018-02-03T12:13:26.799Z,55.80
2018-02-03T12:16:00.046Z,55.20
2018-02-03T12:18:37.423Z,55.20
2018-02-03T12:21:10.054Z,55.30
2018-02-03T12:23:42.020Z,55.10
2018-02-03T12:26:13.951Z,55.80
2018-02-03T12:28:45.855Z,54.80
2018-02-03T12:31:17.584Z,54.60
2018-02-03T12:33:48.798Z,53.40
2018-02-03T12:36:20.750Z,54.40
2018-02-03T12:38:52.405Z,55.00
2018-02-03T12:41:24.338Z,53.80
2018-02-03T12:43:57.346Z,53.40
2018-02-03T12:46:33.163Z,53.40
2018-02-03T12:49:05.608Z,53.40
2018-02-03T12:51:39.851Z,53.40
2018-02-03T12:54:13.323Z,53.80
2018-02-03T12:56:45.737Z,53.50
2018-02-03T12:59:18.859Z,53.40
2018-02-03T13:01:50.499Z,53.90
2018-02-03T13:04:23.464Z,53.90
2018-02-03T13:06:55.825Z,53.70
2018-02-03T13:09:27.099Z,53.70
2018-02-03T13:11:59.529Z,53.40
2018-02-03T13:14:33.193Z,52.60
2018-02-03T13:17:04.824Z,53.10
2018-02-03T13:19:37.304Z,53.80
2018-02-03T13:22:10.518Z,53.10
2018-02-03T13:24:43.187Z,53.20
2018-02-03T13:27:15.827Z,52.80
2018-02-03T13:29:49.773Z,52.10
2018-02-03T13:32:21.926Z,52.10
2018-02-03T13:34:54.283Z,52.00
2018-02-03T13:37:26.418Z,51.70
2018-02-03T13:39:58.512Z,51.80
2018-02-03T13:42:30.199Z,52.00
2018-02-03T13:45:01.808Z,52.00
2018-02-03T14:01:05.441Z,53.50
2018-02-03T14:03:37.949Z,53.40
2018-02-03T14:06:08.544Z,54.00
2018-02-03T14:08:40.034Z,54.30
2018-02-03T14:11:10.656Z,54.30
2018-02-03T14:13:41.552Z,54.30
2018-02-03T14:16:13.055Z,54.30
2018-02-03T14:18:43.636Z,54.30
2018-02-03T14:21:15.195Z,54.10
2018-02-03T14:40:34.225Z,54.60
2018-02-03T14:43:05.351Z,54.30
2018-02-03T14:45:35.908Z,54.20
2018-02-03T14:48:08.178Z,54.60
2018-02-03T14:50:39.263Z,54.60
2018-02-03T14:53:09.356Z,54.30
2018-02-03T14:55:40.131Z,54.30
2018-02-03T14:58:10.223Z,54.50
2018-02-03T15:00:41.084Z,55.60
2018-02-03T15:03:12.562Z,54.60
2018-02-03T15:05:43.310Z,54.60
2018-02-03T15:08:13.660Z,54.90
2018-02-03T15:10:44.470Z,55.30
2018-02-03T15:13:14.760Z,55.50
2018-02-03T15:15:45.688Z,55.60
2018-02-03T15:18:16.758Z,56.10
2018-02-03T15:20:46.869Z,56.70
2018-02-03T15:23:17.029Z,55.90
2018-02-03T15:25:46.944Z,56.20
2018-02-03T15:28:17.135Z,56.30
2018-02-03T15:30:48.475Z,56.50
2018-02-03T15:33:18.517Z,56.30
2018-02-03T15:35:50.613Z,56.20
2018-02-03T15:38:20.966Z,56.60
2018-02-03T15:40:51.006Z,56.80
2018-02-03T15:43:21.386Z,56.60
2018-02-03T15:45:51.758Z,56.60
2018-02-03T15:48:22.073Z,56.80
2018-02-03T15:50:52.625Z,56.70
2018-02-03T15:53:22.630Z,57.20
2018-02-03T15:55:52.851Z,57.30
2018-02-03T15:58:23.911Z,57.60
2018-02-03T16:00:53.865Z,57.70
2018-02-03T16:03:24.657Z,57.30
2018-02-03T16:05:55.059Z,57.30
2018-02-03T16:08:25.107Z,57.80
2018-02-03T16:10:55.081Z,57.80
2018-02-03T16:13:25.284Z,57.70
2018-02-03T16:15:56.061Z,57.90
2018-02-03T16:18:26.820Z,58.30
2018-02-03T16:20:57.850Z,58.40
2018-02-03T16:23:29.918Z,58.40
2018-02-03T16:25:59.909Z,58.40
2018-02-03T16:28:30.417Z,58.70
2018-02-03T16:31:00.547Z,58.70
2018-02-03T16:33:30.700Z,58.70
2018-02-03T16:36:01.874Z,59.00
2018-02-03T16:38:32.921Z,59.00
2018-02-03T16:41:02.998Z,59.00
2018-02-03T16:43:33.259Z,59.20
2018-02-03T16:46:03.354Z,59.20
2018-02-03T16:48:34.331Z,59.40
2018-02-03T16:51:06.189Z,59.50
2018-02-03T16:53:37.042Z,59.50
2018-02-03T16:56:07.418Z,59.50
2018-02-03T16:58:37.461Z,60.20
2018-02-03T17:01:07.696Z,59.60
2018-02-03T17:03:38.737Z,59.80
2018-02-03T17:06:09.839Z,59.60
2018-02-03T17:08:39.868Z,59.70
2018-02-03T17:11:11.199Z,59.80
2018-02-03T17:13:41.326Z,59.70
2018-02-03T17:16:11.267Z,59.90
2018-02-03T17:18:43.944Z,60.10
2018-02-03T17:21:14.796Z,60.20
2018-02-03T17:23:46.082Z,60.30
2018-02-03T17:26:16.546Z,60.30
2018-02-03T17:28:47.026Z,60.30
2018-02-03T17:31:17.277Z,60.30
2018-02-03T17:33:49.583Z,60.60
2018-02-03T17:36:24.482Z,60.30
2018-02-03T17:38:59.028Z,61.60
2018-02-03T17:41:29.425Z,60.90
2018-02-03T17:43:59.790Z,61.10
2018-02-03T17:47:06.591Z,61.60
2018-02-03T17:49:36.834Z,61.60
2018-02-03T17:52:08.258Z,61.50
2018-02-03T17:54:38.280Z,61.50
2018-02-03T17:57:13.397Z,61.60
2018-02-03T18:02:20.597Z,61.90
2018-02-03T18:04:50.915Z,61.80
2018-02-03T18:07:27.047Z,61.80
2018-02-03T18:09:58.222Z,61.70
2018-02-03T18:12:28.727Z,61.50
2018-02-03T18:14:59.039Z,61.70
2018-02-03T18:17:29.111Z,61.90
2018-02-03T18:20:00.227Z,62.30
2018-02-03T18:22:30.645Z,62.30
2018-02-03T18:25:00.923Z,62.30
2018-02-03T18:27:32.008Z,62.30
2018-02-03T18:30:02.375Z,62.20
2018-02-03T18:32:32.699Z,62.60
2018-02-03T18:35:03.890Z,61.90
2018-02-03T18:37:33.868Z,63.30
2018-02-03T18:40:03.891Z,64.10
2018-02-03T18:42:35.271Z,64.80
2018-02-03T18:45:05.964Z,64.10
2018-02-03T18:47:36.147Z,63.90
2018-02-03T18:50:06.495Z,63.20
2018-02-03T18:52:37.960Z,64.20
2018-02-03T18:55:09.033Z,64.10
2018-02-03T18:57:39.661Z,64.40
2018-02-03T19:00:10.148Z,64.50
2018-02-03T19:02:41.788Z,65.40
2018-02-03T19:05:12.243Z,65.30
2018-02-03T19:07:43.504Z,65.70
2018-02-03T19:10:14.444Z,65.70
2018-02-03T19:12:45.266Z,65.30
2018-02-03T19:15:16.566Z,66.20
2018-02-03T19:17:48.401Z,65.60
2018-02-03T19:20:19.148Z,66.60
2018-02-03T19:22:50.484Z,66.30
2018-02-03T19:25:21.190Z,66.40
2018-02-03T19:27:52.152Z,66.60
2018-02-03T19:30:22.831Z,67.00
2018-02-03T19:32:53.380Z,66.60
2018-02-03T19:35:25.112Z,66.60
2018-02-03T19:37:55.597Z,66.40
2018-02-03T19:40:26.519Z,66.70
2018-02-03T19:42:57.340Z,66.60
2018-02-03T19:45:28.945Z,67.20
2018-02-03T19:48:00.051Z,67.20
2018-02-03T19:50:31.020Z,67.30
2018-02-03T19:53:01.593Z,68.20
2018-02-03T19:55:33.926Z,68.10
2018-02-03T19:58:05.071Z,68.10
2018-02-03T20:00:35.735Z,68.20
2018-02-03T20:03:06.273Z,69.50
2018-02-03T20:05:38.197Z,68.60
2018-02-03T20:08:08.527Z,68.60
2018-02-03T20:10:40.339Z,69.40
2018-02-03T20:13:12.570Z,68.50
2018-02-03T20:15:43.443Z,68.50
2018-02-03T20:18:15.198Z,68.70
2018-02-03T20:20:46.658Z,67.60
2018-02-03T20:23:17.627Z,68.80
2018-02-03T20:25:48.357Z,68.90
2018-02-03T20:28:19.425Z,68.80
2018-02-03T20:30:50.508Z,68.90
2018-02-03T20:33:22.264Z,68.70
2018-02-03T20:35:53.706Z,69.00
2018-02-03T20:38:25.300Z,68.90
2018-02-03T20:40:57.023Z,69.00
2018-02-03T20:43:30.468Z,68.80
2018-02-03T20:46:01.324Z,68.70
2018-02-03T20:51:16.204Z,68.90
2018-02-03T20:53:48.413Z,69.10
2018-02-03T20:56:21.360Z,69.30
2018-02-03T20:58:55.750Z,69.30
2018-02-03T21:01:25.881Z,67.60
2018-02-03T21:03:56.627Z,69.20
2018-02-03T21:06:27.858Z,68.90
2018-02-03T21:08:59.275Z,69.00
2018-02-03T21:11:30.542Z,69.10
2018-02-03T21:14:02.023Z,68.30
2018-02-03T21:16:32.709Z,69.00
2018-02-03T21:19:03.496Z,69.20
2018-02-03T21:21:33.737Z,69.00
2018-02-03T21:24:04.401Z,69.00
2018-02-03T21:26:35.142Z,69.00
2018-02-03T21:29:07.990Z,69.10
2018-02-03T21:31:38.263Z,69.00
2018-02-03T21:34:10.014Z,68.90
2018-02-03T21:36:41.626Z,68.70
2018-02-03T21:39:14.516Z,68.80
2018-02-03T21:41:45.758Z,68.50
2018-02-03T21:44:17.280Z,68.90
2018-02-03T21:46:47.640Z,68.90
2018-02-03T21:49:19.571Z,68.60
2018-02-03T21:51:56.295Z,68.70
2018-02-03T21:54:27.992Z,68.80
2018-02-03T21:56:59.162Z,68.80
2018-02-03T22:43:16.148Z,69.40
2018-02-03T22:45:46.526Z,69.50
2018-02-03T22:48:17.641Z,69.20
2018-02-03T22:50:48.789Z,69.20
2018-02-03T22:53:20.818Z,69.00
2018-02-03T22:55:53.128Z,69.20
2018-02-03T22:58:24.986Z,69.10
2018-02-03T23:00:59.809Z,69.20
2018-02-03T23:03:30.310Z,69.20
2018-02-03T23:06:00.919Z,68.80
2018-02-03T23:08:32.213Z,68.80
2018-02-03T23:11:02.619Z,68.70
2018-02-03T23:13:32.665Z,68.70
2018-02-03T23:16:03.009Z,68.70
2018-02-03T23:18:33.210Z,70.40
2018-02-03T23:21:03.275Z,69.10
2018-02-03T23:23:36.576Z,69.10
2018-02-03T23:26:06.749Z,69.10
2018-02-03T23:28:36.963Z,69.20
2018-02-03T23:31:07.365Z,68.70
2018-02-03T23:33:37.345Z,68.60
2018-02-03T23:36:07.770Z,68.80
2018-02-03T23:38:38.306Z,68.80
2018-02-03T23:43:54.970Z,69.40
2018-02-03T23:46:26.622Z,69.30
2018-02-03T23:48:57.261Z,69.20
2018-02-03T23:51:27.375Z,69.00
2018-02-03T23:53:57.612Z,69.40
2018-02-03T23:56:28.040Z,69.20
2018-02-03T23:58:58.053Z,69.60
